Terminal Aerodrome Forecast
Issued by NWS

Home | Current Version | Previous Version | Graphics & Text | Print | Product List | Glossary Off
Versions: 1 2 3 4 5 6 7 8 9 10 11 12 13

000
FTUS43 KMPX 051723
TAFRNH
TAF
KRNH 051723Z 0518/0618 22009KT P6SM VCSH BKN090
     FM052100 22012KT P6SM BKN120
     FM060000 22006KT P6SM SCT120 BKN250
     FM060600 24005KT P6SM SCT250=

USA.gov is the U.S. government's official web portal to all federal, state and local government web resources and services.